EKA9009 PANC-PARC
Flight info
| Callsign | EKA9009 |
|---|---|
| Flight time | N/A |
| Altitude | 12000 |
| Route | FAI |
| Aircraft | DC3/M-SDF/S |
Departure
| Time | 2026-05-05 14:17 |
|---|---|
| Airport | Ted Stevens Anchorage International Airport (PANC) |
Arrival
| Time | N/A |
|---|---|
| Airport | Arctic Village Airport (PARC) |
| Time | Latitude | Longitude | Altitude | Speed | Heading |
|---|---|---|---|---|---|
| 2026-05-05 14:07 | 61.17301 | -149.95242 | 161 ft | 0 kts | 159° |
| 2026-05-05 14:11 | 61.17299 | -149.95241 | 161 ft | 2 kts | 159° |
| 2026-05-05 14:11 | 61.17207 | -149.95165 | 161 ft | 20 kts | 157° |
| 2026-05-05 14:11 | 61.17136 | -149.95144 | 161 ft | 5 kts | 218° |
| 2026-05-05 14:12 | 61.17127 | -149.95295 | 161 ft | 16 kts | 270° |
| 2026-05-05 14:12 | 61.17122 | -149.95654 | 161 ft | 32 kts | 270° |
| 2026-05-05 14:12 | 61.17125 | -149.96138 | 161 ft | 33 kts | 271° |
| 2026-05-05 14:12 | 61.17138 | -149.96593 | 161 ft | 29 kts | 276° |
| 2026-05-05 14:13 | 61.17129 | -149.96944 | 161 ft | 22 kts | 267° |
| 2026-05-05 14:13 | 61.17126 | -149.97240 | 161 ft | 20 kts | 269° |
| 2026-05-05 14:13 | 61.17125 | -149.97523 | 161 ft | 20 kts | 270° |
| 2026-05-05 14:13 | 61.17124 | -149.97801 | 161 ft | 18 kts | 270° |
| 2026-05-05 14:14 | 61.17123 | -149.98056 | 161 ft | 17 kts | 270° |
| 2026-05-05 14:14 | 61.17123 | -149.98297 | 161 ft | 18 kts | 270° |
| 2026-05-05 14:14 | 61.17122 | -149.98615 | 161 ft | 25 kts | 270° |
| 2026-05-05 14:14 | 61.17121 | -149.98940 | 161 ft | 18 kts | 270° |
| 2026-05-05 14:15 | 61.17121 | -149.99121 | 161 ft | 10 kts | 270° |
| 2026-05-05 14:15 | 61.17120 | -149.99316 | 161 ft | 16 kts | 270° |
| 2026-05-05 14:15 | 61.17119 | -149.99540 | 161 ft | 14 kts | 270° |
| 2026-05-05 14:15 | 61.17119 | -149.99725 | 161 ft | 11 kts | 270° |
| 2026-05-05 14:16 | 61.17125 | -149.99847 | 161 ft | 7 kts | 308° |
| 2026-05-05 14:16 | 61.17156 | -149.99872 | 161 ft | 0 kts | 346° |
| 2026-05-05 14:16 | 61.17401 | -150.00005 | 162 ft | 74 kts | 345° |
| 2026-05-05 14:16 | 61.18030 | -150.00346 | 328 ft | 109 kts | 345° |
| 2026-05-05 14:17 | 61.18810 | -150.00764 | 692 ft | 123 kts | 345° |
| 2026-05-05 14:17 | 61.19673 | -150.01146 | 1056 ft | 134 kts | 355° |
| 2026-05-05 14:17 | 61.20606 | -150.00550 | 1276 ft | 149 kts | 27° |
| 2026-05-05 14:17 | 61.21526 | -149.99420 | 1469 ft | 158 kts | 30° |
| 2026-05-05 14:18 | 61.22514 | -149.98335 | 1660 ft | 161 kts | 24° |
| 2026-05-05 14:18 | 61.23525 | -149.97455 | 2019 ft | 154 kts | 20° |
| 2026-05-05 14:18 | 61.24516 | -149.96733 | 2386 ft | 149 kts | 17° |
| 2026-05-05 14:18 | 61.25494 | -149.96110 | 2755 ft | 145 kts | 15° |
| 2026-05-05 14:19 | 61.26456 | -149.95554 | 3128 ft | 143 kts | 14° |
| 2026-05-05 14:19 | 61.27413 | -149.95038 | 3501 ft | 140 kts | 13° |
| 2026-05-05 14:19 | 61.28341 | -149.94559 | 3873 ft | 135 kts | 13° |
| 2026-05-05 14:19 | 61.29245 | -149.94103 | 4238 ft | 132 kts | 12° |
| 2026-05-05 14:20 | 61.30127 | -149.93665 | 4602 ft | 129 kts | 12° |
| 2026-05-05 14:20 | 61.30988 | -149.93241 | 4967 ft | 126 kts | 12° |
| 2026-05-05 14:20 | 61.31829 | -149.92829 | 5334 ft | 123 kts | 12° |
| 2026-05-05 14:20 | 61.32649 | -149.92429 | 5699 ft | 119 kts | 11° |
| 2026-05-05 14:21 | 61.33447 | -149.92040 | 6066 ft | 116 kts | 11° |
| 2026-05-05 14:21 | 61.34221 | -149.91663 | 6424 ft | 113 kts | 11° |
| 2026-05-05 14:21 | 61.34997 | -149.91287 | 6687 ft | 118 kts | 11° |
| 2026-05-05 14:21 | 61.35809 | -149.90893 | 6945 ft | 122 kts | 11° |
| 2026-05-05 14:22 | 61.36645 | -149.90486 | 7202 ft | 125 kts | 11° |
| 2026-05-05 14:22 | 61.37512 | -149.90063 | 7462 ft | 129 kts | 11° |
| 2026-05-05 14:22 | 61.38398 | -149.89630 | 7718 ft | 132 kts | 11° |
| 2026-05-05 14:22 | 61.39303 | -149.89185 | 7972 ft | 134 kts | 11° |
| 2026-05-05 14:23 | 61.40210 | -149.88739 | 8223 ft | 135 kts | 11° |
| 2026-05-05 14:23 | 61.41083 | -149.88311 | 8460 ft | 135 kts | 11° |
| 2026-05-05 14:23 | 61.42040 | -149.87841 | 8721 ft | 135 kts | 12° |
| 2026-05-05 14:23 | 61.42942 | -149.87398 | 8967 ft | 135 kts | 11° |
| 2026-05-05 14:24 | 61.43853 | -149.86950 | 9213 ft | 134 kts | 11° |
| 2026-05-05 14:24 | 61.44763 | -149.86503 | 9460 ft | 134 kts | 11° |
| 2026-05-05 14:24 | 61.45674 | -149.86055 | 9707 ft | 135 kts | 11° |
| 2026-05-05 14:24 | 61.46587 | -149.85608 | 9953 ft | 135 kts | 11° |
| 2026-05-05 14:25 | 61.47501 | -149.85159 | 10200 ft | 135 kts | 11° |
| 2026-05-05 14:25 | 61.48415 | -149.84709 | 10446 ft | 135 kts | 11° |
| 2026-05-05 14:25 | 61.49328 | -149.84260 | 10692 ft | 135 kts | 10° |
| 2026-05-05 14:25 | 61.50239 | -149.83811 | 10937 ft | 134 kts | 11° |
| 2026-05-05 14:26 | 61.51152 | -149.83362 | 11183 ft | 134 kts | 10° |
| 2026-05-05 14:26 | 61.52060 | -149.82914 | 11426 ft | 134 kts | 10° |
| 2026-05-05 14:26 | 61.52953 | -149.82474 | 11666 ft | 133 kts | 10° |
| 2026-05-05 14:26 | 61.53865 | -149.82026 | 11860 ft | 137 kts | 10° |
| 2026-05-05 14:27 | 61.54826 | -149.81555 | 11977 ft | 147 kts | 10° |
| 2026-05-05 14:27 | 61.55867 | -149.81047 | 12005 ft | 160 kts | 10° |
| 2026-05-05 14:27 | 61.56991 | -149.80494 | 12010 ft | 169 kts | 11° |
| 2026-05-05 14:27 | 61.58154 | -149.79917 | 12005 ft | 173 kts | 11° |
| 2026-05-05 14:28 | 61.59333 | -149.79330 | 12001 ft | 175 kts | 11° |
| 2026-05-05 14:28 | 61.60524 | -149.78738 | 12000 ft | 176 kts | 11° |
| 2026-05-05 14:28 | 61.61722 | -149.78142 | 12001 ft | 177 kts | 11° |
| 2026-05-05 14:28 | 61.62925 | -149.77544 | 12001 ft | 178 kts | 11° |
| 2026-05-05 14:29 | 61.64127 | -149.76946 | 12001 ft | 178 kts | 11° |
| 2026-05-05 14:29 | 61.65333 | -149.76346 | 12000 ft | 178 kts | 11° |
| 2026-05-05 14:29 | 61.66541 | -149.75745 | 12000 ft | 178 kts | 11° |
| 2026-05-05 14:29 | 61.67737 | -149.75150 | 12000 ft | 179 kts | 11° |
| 2026-05-05 14:30 | 61.68944 | -149.74548 | 12000 ft | 179 kts | 11° |
| 2026-05-05 14:30 | 61.70156 | -149.73945 | 12000 ft | 179 kts | 11° |
| 2026-05-05 14:30 | 61.71366 | -149.73341 | 12000 ft | 179 kts | 11° |
| 2026-05-05 14:30 | 61.72577 | -149.72736 | 11999 ft | 179 kts | 11° |
| 2026-05-05 14:31 | 61.73788 | -149.72131 | 11999 ft | 179 kts | 11° |
| 2026-05-05 14:31 | 61.74999 | -149.71526 | 11999 ft | 179 kts | 11° |
| 2026-05-05 14:31 | 61.76209 | -149.70917 | 12000 ft | 179 kts | 11° |
| 2026-05-05 14:31 | 61.77421 | -149.70307 | 11999 ft | 179 kts | 11° |
| 2026-05-05 14:32 | 61.78630 | -149.69699 | 11999 ft | 179 kts | 11° |
| 2026-05-05 14:32 | 61.79845 | -149.69087 | 11999 ft | 179 kts | 11° |
| 2026-05-05 14:32 | 61.81055 | -149.68478 | 11999 ft | 179 kts | 11° |
| 2026-05-05 14:32 | 61.82269 | -149.67868 | 11998 ft | 179 kts | 11° |
| 2026-05-05 14:33 | 61.83482 | -149.67257 | 11997 ft | 179 kts | 11° |
| 2026-05-05 14:33 | 61.84692 | -149.66647 | 11998 ft | 179 kts | 11° |
| 2026-05-05 14:33 | 61.85904 | -149.66036 | 11996 ft | 179 kts | 11° |
| 2026-05-05 14:33 | 61.87115 | -149.65424 | 11995 ft | 179 kts | 11° |
| 2026-05-05 14:34 | 61.88324 | -149.64813 | 11991 ft | 178 kts | 11° |
| 2026-05-05 14:34 | 61.89519 | -149.64211 | 11994 ft | 179 kts | 11° |
| 2026-05-05 14:34 | 61.90730 | -149.63600 | 11995 ft | 179 kts | 11° |
| 2026-05-05 14:34 | 61.91941 | -149.62989 | 11993 ft | 179 kts | 11° |
| 2026-05-05 14:35 | 61.93154 | -149.62375 | 11994 ft | 179 kts | 11° |
| 2026-05-05 14:35 | 61.94366 | -149.61762 | 11995 ft | 179 kts | 11° |
| 2026-05-05 14:35 | 61.95579 | -149.61148 | 12000 ft | 179 kts | 11° |
| 2026-05-05 14:35 | 61.96796 | -149.60534 | 11998 ft | 180 kts | 11° |
| 2026-05-05 14:36 | 61.98006 | -149.59921 | 11993 ft | 180 kts | 11° |
| 2026-05-05 14:36 | 61.99229 | -149.59296 | 11997 ft | 179 kts | 11° |
| 2026-05-05 14:36 | 62.00442 | -149.58673 | 11996 ft | 179 kts | 12° |
| 2026-05-05 14:36 | 62.01651 | -149.58053 | 11999 ft | 179 kts | 12° |
| 2026-05-05 14:37 | 62.02864 | -149.57432 | 11999 ft | 179 kts | 12° |
| 2026-05-05 14:37 | 62.04075 | -149.56812 | 11999 ft | 179 kts | 12° |
| 2026-05-05 14:37 | 62.05287 | -149.56190 | 11996 ft | 179 kts | 12° |
| 2026-05-05 14:37 | 62.06503 | -149.55563 | 11998 ft | 179 kts | 12° |
| 2026-05-05 14:38 | 62.07713 | -149.54938 | 11996 ft | 179 kts | 12° |
| 2026-05-05 14:38 | 62.08931 | -149.54313 | 11998 ft | 179 kts | 12° |
| 2026-05-05 14:38 | 62.09734 | -149.53901 | 12000 ft | 179 kts | 12° |
| 2026-05-05 14:38 | 62.10949 | -149.53279 | 12000 ft | 180 kts | 12° |
| 2026-05-05 14:39 | 62.12161 | -149.52659 | 12003 ft | 180 kts | 12° |
| 2026-05-05 14:39 | 62.13377 | -149.52036 | 11999 ft | 180 kts | 12° |
| 2026-05-05 14:39 | 62.14594 | -149.51410 | 11995 ft | 180 kts | 12° |
| 2026-05-05 14:39 | 62.15809 | -149.50784 | 11997 ft | 179 kts | 12° |
| 2026-05-05 14:40 | 62.17022 | -149.50158 | 11999 ft | 179 kts | 12° |
| 2026-05-05 14:40 | 62.18233 | -149.49536 | 11995 ft | 179 kts | 12° |
| 2026-05-05 14:40 | 62.19443 | -149.48916 | 12001 ft | 179 kts | 12° |
| 2026-05-05 14:40 | 62.20655 | -149.48293 | 11999 ft | 179 kts | 12° |
| 2026-05-05 14:41 | 62.21849 | -149.47677 | 11998 ft | 179 kts | 12° |
| 2026-05-05 14:41 | 62.23073 | -149.47045 | 11999 ft | 179 kts | 12° |
| 2026-05-05 14:41 | 62.24281 | -149.46419 | 11999 ft | 179 kts | 12° |
| 2026-05-05 14:41 | 62.25477 | -149.45800 | 12008 ft | 178 kts | 12° |
| 2026-05-05 14:42 | 62.26686 | -149.45173 | 12002 ft | 179 kts | 12° |
| 2026-05-05 14:42 | 62.27899 | -149.44544 | 11999 ft | 179 kts | 12° |
| 2026-05-05 14:42 | 62.29109 | -149.43917 | 11996 ft | 179 kts | 12° |
| 2026-05-05 14:42 | 62.30321 | -149.43288 | 11997 ft | 179 kts | 12° |
| 2026-05-05 14:43 | 62.31533 | -149.42659 | 11999 ft | 179 kts | 12° |
| 2026-05-05 14:43 | 62.32741 | -149.42033 | 12002 ft | 179 kts | 12° |
| 2026-05-05 14:43 | 62.33950 | -149.41405 | 11998 ft | 179 kts | 12° |
| 2026-05-05 14:43 | 62.35162 | -149.40774 | 12001 ft | 179 kts | 12° |
| 2026-05-05 14:44 | 62.36373 | -149.40145 | 12005 ft | 179 kts | 12° |
| 2026-05-05 14:44 | 62.37565 | -149.39523 | 12002 ft | 179 kts | 12° |
| 2026-05-05 14:44 | 62.38773 | -149.38892 | 12000 ft | 178 kts | 12° |
| 2026-05-05 14:44 | 62.39978 | -149.38261 | 12000 ft | 178 kts | 12° |
| 2026-05-05 14:45 | 62.41183 | -149.37629 | 12000 ft | 178 kts | 12° |
| 2026-05-05 14:45 | 62.42386 | -149.36993 | 12002 ft | 178 kts | 12° |
| 2026-05-05 14:45 | 62.43589 | -149.36356 | 12001 ft | 178 kts | 12° |
| 2026-05-05 14:45 | 62.44792 | -149.35715 | 11999 ft | 178 kts | 12° |
| 2026-05-05 14:46 | 62.45995 | -149.35074 | 11999 ft | 178 kts | 12° |
| 2026-05-05 14:46 | 62.47197 | -149.34434 | 12001 ft | 178 kts | 12° |
| 2026-05-05 14:46 | 62.48400 | -149.33794 | 12000 ft | 178 kts | 12° |
| 2026-05-05 14:46 | 62.49600 | -149.33153 | 12000 ft | 178 kts | 12° |
| 2026-05-05 14:47 | 62.50805 | -149.32508 | 12001 ft | 178 kts | 12° |
| 2026-05-05 14:47 | 62.52008 | -149.31862 | 12000 ft | 178 kts | 12° |
| 2026-05-05 14:47 | 62.53207 | -149.31214 | 12001 ft | 178 kts | 13° |
| 2026-05-05 14:47 | 62.54391 | -149.30573 | 12001 ft | 177 kts | 13° |
| 2026-05-05 14:48 | 62.55587 | -149.29926 | 12001 ft | 177 kts | 13° |
| 2026-05-05 14:48 | 62.56784 | -149.29280 | 12001 ft | 177 kts | 13° |
| 2026-05-05 14:48 | 62.57980 | -149.28635 | 12001 ft | 177 kts | 13° |
| 2026-05-05 14:48 | 62.59174 | -149.27991 | 12001 ft | 177 kts | 13° |
| 2026-05-05 14:49 | 62.60370 | -149.27346 | 12001 ft | 177 kts | 13° |
| 2026-05-05 14:49 | 62.61565 | -149.26702 | 12002 ft | 177 kts | 13° |
| 2026-05-05 14:49 | 62.62759 | -149.26057 | 12002 ft | 177 kts | 13° |
| 2026-05-05 14:49 | 62.63956 | -149.25410 | 12004 ft | 177 kts | 13° |
| 2026-05-05 14:50 | 62.65147 | -149.24766 | 12004 ft | 177 kts | 13° |
| 2026-05-05 14:50 | 62.66341 | -149.24120 | 12003 ft | 177 kts | 13° |
| 2026-05-05 14:50 | 62.67535 | -149.23474 | 12003 ft | 177 kts | 13° |
| 2026-05-05 14:50 | 62.68730 | -149.22827 | 12006 ft | 177 kts | 13° |
| 2026-05-05 14:51 | 62.69926 | -149.22180 | 12004 ft | 177 kts | 13° |
| 2026-05-05 14:51 | 62.71103 | -149.21542 | 12005 ft | 177 kts | 13° |
| 2026-05-05 14:51 | 62.72299 | -149.20893 | 12005 ft | 177 kts | 13° |
| 2026-05-05 14:51 | 62.73493 | -149.20244 | 12006 ft | 177 kts | 13° |
| 2026-05-05 14:52 | 62.74687 | -149.19594 | 12003 ft | 177 kts | 13° |
| 2026-05-05 14:52 | 62.75884 | -149.18942 | 12003 ft | 177 kts | 13° |
| 2026-05-05 14:52 | 62.77074 | -149.18293 | 12004 ft | 176 kts | 13° |
| 2026-05-05 14:52 | 62.78265 | -149.17643 | 12004 ft | 176 kts | 13° |
| 2026-05-05 14:53 | 62.79456 | -149.16993 | 12005 ft | 176 kts | 13° |
| 2026-05-05 14:53 | 62.80645 | -149.16344 | 12005 ft | 176 kts | 13° |
| 2026-05-05 14:53 | 62.81818 | -149.15702 | 12005 ft | 176 kts | 13° |
| 2026-05-05 14:53 | 62.83007 | -149.15051 | 12005 ft | 176 kts | 13° |
| 2026-05-05 14:54 | 62.84198 | -149.14400 | 12005 ft | 176 kts | 13° |
| 2026-05-05 14:54 | 62.85384 | -149.13749 | 12007 ft | 176 kts | 13° |
| 2026-05-05 14:54 | 62.86573 | -149.13097 | 12006 ft | 176 kts | 13° |
| 2026-05-05 14:54 | 62.87761 | -149.12445 | 12003 ft | 176 kts | 13° |
| 2026-05-05 14:55 | 62.88950 | -149.11788 | 12001 ft | 176 kts | 13° |
| 2026-05-05 14:55 | 62.90142 | -149.11125 | 12000 ft | 176 kts | 13° |
| 2026-05-05 14:55 | 62.91334 | -149.10463 | 12000 ft | 176 kts | 13° |
| 2026-05-05 14:55 | 62.92520 | -149.09805 | 12000 ft | 176 kts | 13° |
| 2026-05-05 14:56 | 62.93712 | -149.09146 | 12000 ft | 176 kts | 13° |
| 2026-05-05 14:56 | 62.94901 | -149.08488 | 12000 ft | 176 kts | 13° |
| 2026-05-05 14:56 | 62.96089 | -149.07831 | 11992 ft | 177 kts | 13° |
| 2026-05-05 14:56 | 62.97273 | -149.07175 | 11961 ft | 178 kts | 13° |
| 2026-05-05 14:57 | 62.98476 | -149.06509 | 11953 ft | 178 kts | 13° |
| 2026-05-05 14:57 | 62.99674 | -149.05846 | 11952 ft | 177 kts | 13° |
| 2026-05-05 14:57 | 63.00869 | -149.05183 | 11953 ft | 177 kts | 13° |
| 2026-05-05 14:57 | 63.02060 | -149.04523 | 11954 ft | 177 kts | 13° |
| 2026-05-05 14:58 | 63.03250 | -149.03863 | 11955 ft | 176 kts | 13° |
| 2026-05-05 14:58 | 63.04442 | -149.03201 | 11956 ft | 176 kts | 13° |
| 2026-05-05 14:58 | 63.05631 | -149.02540 | 11956 ft | 176 kts | 13° |
| 2026-05-05 14:58 | 63.06813 | -149.01882 | 11957 ft | 175 kts | 13° |
| 2026-05-05 14:59 | 63.07998 | -149.01222 | 11960 ft | 175 kts | 13° |
| 2026-05-05 14:59 | 63.09170 | -149.00565 | 11989 ft | 174 kts | 13° |
| 2026-05-05 14:59 | 63.10343 | -148.99906 | 11999 ft | 174 kts | 13° |
| 2026-05-05 14:59 | 63.11517 | -148.99248 | 12002 ft | 174 kts | 13° |
| 2026-05-05 15:00 | 63.12693 | -148.98589 | 12003 ft | 174 kts | 13° |
| 2026-05-05 15:00 | 63.13473 | -148.98153 | 12004 ft | 175 kts | 13° |
| 2026-05-05 15:00 | 63.15036 | -148.97277 | 12005 ft | 175 kts | 13° |
| 2026-05-05 15:00 | 63.16219 | -148.96613 | 12007 ft | 175 kts | 13° |
| 2026-05-05 15:01 | 63.17399 | -148.95950 | 12007 ft | 175 kts | 13° |
| 2026-05-05 15:01 | 63.18583 | -148.95286 | 12008 ft | 175 kts | 13° |
| 2026-05-05 15:01 | 63.19762 | -148.94624 | 12009 ft | 175 kts | 13° |
| 2026-05-05 15:01 | 63.20941 | -148.93962 | 12010 ft | 175 kts | 13° |
| 2026-05-05 15:02 | 63.22125 | -148.93296 | 12011 ft | 175 kts | 13° |
| 2026-05-05 15:02 | 63.23308 | -148.92630 | 12012 ft | 175 kts | 13° |
| 2026-05-05 15:02 | 63.24474 | -148.91974 | 12012 ft | 175 kts | 13° |
| 2026-05-05 15:02 | 63.25655 | -148.91307 | 12011 ft | 175 kts | 13° |
| 2026-05-05 15:03 | 63.26840 | -148.90639 | 12010 ft | 176 kts | 13° |
| 2026-05-05 15:03 | 63.28026 | -148.89970 | 12009 ft | 176 kts | 13° |
| 2026-05-05 15:03 | 63.29208 | -148.89301 | 12008 ft | 176 kts | 13° |
| 2026-05-05 15:03 | 63.30393 | -148.88631 | 12008 ft | 175 kts | 13° |
| 2026-05-05 15:04 | 63.31577 | -148.87960 | 12009 ft | 175 kts | 13° |
| 2026-05-05 15:04 | 63.32759 | -148.87290 | 12010 ft | 175 kts | 13° |
| 2026-05-05 15:04 | 63.33940 | -148.86620 | 12011 ft | 175 kts | 13° |
| 2026-05-05 15:04 | 63.35122 | -148.85949 | 12011 ft | 175 kts | 13° |
| 2026-05-05 15:05 | 63.37486 | -148.84605 | 12011 ft | 175 kts | 13° |
| 2026-05-05 15:05 | 63.38668 | -148.83931 | 12014 ft | 175 kts | 13° |
| 2026-05-05 15:05 | 63.39847 | -148.83262 | 12014 ft | 175 kts | 13° |
| 2026-05-05 15:06 | 63.41030 | -148.82590 | 12015 ft | 175 kts | 13° |
| 2026-05-05 15:06 | 63.42214 | -148.81913 | 12015 ft | 175 kts | 13° |
| 2026-05-05 15:06 | 63.43393 | -148.81239 | 12016 ft | 175 kts | 13° |
| 2026-05-05 15:06 | 63.44574 | -148.80564 | 12016 ft | 175 kts | 13° |
| 2026-05-05 15:07 | 63.45756 | -148.79887 | 12017 ft | 175 kts | 13° |
| 2026-05-05 15:07 | 63.46938 | -148.79210 | 12017 ft | 175 kts | 13° |
| 2026-05-05 15:07 | 63.48121 | -148.78531 | 12017 ft | 175 kts | 13° |
| 2026-05-05 15:07 | 63.49289 | -148.77862 | 12018 ft | 175 kts | 13° |
| 2026-05-05 15:08 | 63.50469 | -148.77184 | 12018 ft | 175 kts | 13° |
| 2026-05-05 15:08 | 63.51650 | -148.76506 | 12018 ft | 175 kts | 13° |
| 2026-05-05 15:08 | 63.52832 | -148.75827 | 12019 ft | 175 kts | 13° |
| 2026-05-05 15:08 | 63.54015 | -148.75147 | 12019 ft | 175 kts | 13° |
| 2026-05-05 15:09 | 63.55198 | -148.74465 | 12019 ft | 175 kts | 13° |
| 2026-05-05 15:09 | 63.56380 | -148.73783 | 12019 ft | 176 kts | 13° |
| 2026-05-05 15:09 | 63.57566 | -148.73098 | 12020 ft | 176 kts | 13° |
| 2026-05-05 15:09 | 63.58752 | -148.72413 | 12020 ft | 176 kts | 13° |
| 2026-05-05 15:10 | 63.59939 | -148.71728 | 12020 ft | 176 kts | 13° |
| 2026-05-05 15:10 | 63.61128 | -148.71040 | 12020 ft | 176 kts | 13° |
| 2026-05-05 15:10 | 63.62316 | -148.70352 | 12020 ft | 176 kts | 13° |
| 2026-05-05 15:10 | 63.63505 | -148.69663 | 12020 ft | 176 kts | 13° |
| 2026-05-05 15:11 | 63.64691 | -148.68975 | 12020 ft | 176 kts | 13° |
| 2026-05-05 15:11 | 63.65881 | -148.68284 | 12020 ft | 176 kts | 13° |
| 2026-05-05 15:11 | 63.67068 | -148.67595 | 12020 ft | 176 kts | 13° |
| 2026-05-05 15:11 | 63.68241 | -148.66913 | 12020 ft | 176 kts | 13° |
| 2026-05-05 15:12 | 63.69428 | -148.66222 | 12020 ft | 176 kts | 13° |
| 2026-05-05 15:12 | 63.70616 | -148.65530 | 12020 ft | 176 kts | 13° |
| 2026-05-05 15:12 | 63.71802 | -148.64839 | 12020 ft | 176 kts | 13° |
| 2026-05-05 15:12 | 63.72993 | -148.64144 | 12020 ft | 176 kts | 13° |
| 2026-05-05 15:13 | 63.74178 | -148.63452 | 12022 ft | 176 kts | 13° |
| 2026-05-05 15:13 | 63.75366 | -148.62757 | 12024 ft | 176 kts | 13° |
| 2026-05-05 15:13 | 63.76554 | -148.62062 | 12027 ft | 176 kts | 14° |
| 2026-05-05 15:13 | 63.77739 | -148.61369 | 12026 ft | 176 kts | 13° |
| 2026-05-05 15:14 | 63.78929 | -148.60672 | 12027 ft | 176 kts | 14° |
| 2026-05-05 15:14 | 63.80118 | -148.59974 | 12028 ft | 176 kts | 14° |
| 2026-05-05 15:14 | 63.81304 | -148.59278 | 12029 ft | 176 kts | 14° |
| 2026-05-05 15:14 | 63.82490 | -148.58581 | 12030 ft | 176 kts | 14° |
| 2026-05-05 15:15 | 63.83678 | -148.57882 | 12031 ft | 176 kts | 14° |
| 2026-05-05 15:15 | 63.84867 | -148.57183 | 12033 ft | 176 kts | 13° |
| 2026-05-05 15:15 | 63.86054 | -148.56483 | 12035 ft | 176 kts | 13° |
| 2026-05-05 15:15 | 63.87240 | -148.55784 | 12037 ft | 176 kts | 14° |
| 2026-05-05 15:16 | 63.88427 | -148.55083 | 12039 ft | 176 kts | 14° |
| 2026-05-05 15:16 | 63.89611 | -148.54384 | 12041 ft | 176 kts | 14° |
| 2026-05-05 15:16 | 63.90799 | -148.53682 | 12044 ft | 176 kts | 14° |
| 2026-05-05 15:16 | 63.91982 | -148.52982 | 12046 ft | 176 kts | 14° |
| 2026-05-05 15:17 | 63.93170 | -148.52279 | 12049 ft | 176 kts | 14° |
| 2026-05-05 15:17 | 63.94356 | -148.51576 | 12052 ft | 176 kts | 14° |
| 2026-05-05 15:17 | 63.95540 | -148.50873 | 12055 ft | 176 kts | 14° |
| 2026-05-05 15:17 | 63.96710 | -148.50178 | 12058 ft | 176 kts | 14° |
| 2026-05-05 15:18 | 63.97894 | -148.49475 | 12062 ft | 176 kts | 14° |
| 2026-05-05 15:18 | 63.99079 | -148.48770 | 12066 ft | 176 kts | 14° |
| 2026-05-05 15:18 | 64.00266 | -148.48064 | 12069 ft | 176 kts | 14° |
| 2026-05-05 15:18 | 64.01449 | -148.47361 | 12073 ft | 176 kts | 14° |
| 2026-05-05 15:19 | 64.02630 | -148.46656 | 12077 ft | 175 kts | 14° |
| 2026-05-05 15:19 | 64.03810 | -148.45951 | 12081 ft | 175 kts | 14° |
| 2026-05-05 15:19 | 64.04990 | -148.45245 | 12084 ft | 176 kts | 14° |
| 2026-05-05 15:19 | 64.06175 | -148.44537 | 12089 ft | 176 kts | 14° |
| 2026-05-05 15:20 | 64.07358 | -148.43829 | 12093 ft | 176 kts | 14° |
| 2026-05-05 15:20 | 64.08542 | -148.43119 | 12097 ft | 176 kts | 14° |
| 2026-05-05 15:20 | 64.09727 | -148.42409 | 12101 ft | 176 kts | 14° |
| 2026-05-05 15:20 | 64.10911 | -148.41699 | 12106 ft | 176 kts | 14° |
| 2026-05-05 15:21 | 64.12097 | -148.40987 | 12110 ft | 176 kts | 14° |
| 2026-05-05 15:21 | 64.13267 | -148.40283 | 12114 ft | 176 kts | 14° |
| 2026-05-05 15:21 | 64.14452 | -148.39570 | 12118 ft | 176 kts | 14° |
| 2026-05-05 15:21 | 64.15634 | -148.38859 | 12122 ft | 176 kts | 14° |
| 2026-05-05 15:22 | 64.16822 | -148.38143 | 12125 ft | 176 kts | 14° |
| 2026-05-05 15:22 | 64.18008 | -148.37428 | 12129 ft | 176 kts | 14° |
| 2026-05-05 15:22 | 64.19194 | -148.36712 | 12133 ft | 176 kts | 14° |
| 2026-05-05 15:22 | 64.20381 | -148.35995 | 12136 ft | 176 kts | 14° |
| 2026-05-05 15:23 | 64.21566 | -148.35278 | 12141 ft | 176 kts | 14° |
| 2026-05-05 15:23 | 64.22751 | -148.34561 | 12143 ft | 176 kts | 14° |
| 2026-05-05 15:23 | 64.23938 | -148.33842 | 12146 ft | 176 kts | 14° |
| 2026-05-05 15:23 | 64.25125 | -148.33122 | 12149 ft | 176 kts | 14° |
| 2026-05-05 15:24 | 64.26310 | -148.32403 | 12152 ft | 176 kts | 14° |
| 2026-05-05 15:24 | 64.27497 | -148.31682 | 12157 ft | 176 kts | 14° |
| 2026-05-05 15:24 | 64.28669 | -148.30969 | 12161 ft | 176 kts | 14° |
| 2026-05-05 15:24 | 64.29854 | -148.30248 | 12163 ft | 176 kts | 14° |
| 2026-05-05 15:25 | 64.31043 | -148.29524 | 12165 ft | 176 kts | 14° |
| 2026-05-05 15:25 | 64.32231 | -148.28800 | 12168 ft | 176 kts | 14° |
| 2026-05-05 15:25 | 64.33420 | -148.28075 | 12170 ft | 176 kts | 14° |
| 2026-05-05 15:25 | 64.34603 | -148.27352 | 12171 ft | 176 kts | 14° |
| 2026-05-05 15:26 | 64.35787 | -148.26628 | 12173 ft | 176 kts | 14° |
| 2026-05-05 15:26 | 64.36971 | -148.25904 | 12175 ft | 176 kts | 14° |
| 2026-05-05 15:26 | 64.37752 | -148.25425 | 12176 ft | 176 kts | 14° |
| 2026-05-05 15:26 | 64.38935 | -148.24699 | 12157 ft | 177 kts | 15° |
| 2026-05-05 15:27 | 64.40142 | -148.23932 | 12051 ft | 182 kts | 15° |
| 2026-05-05 15:27 | 64.41364 | -148.23152 | 12010 ft | 181 kts | 15° |
| 2026-05-05 15:27 | 64.42573 | -148.22387 | 12003 ft | 179 kts | 15° |
| 2026-05-05 15:27 | 64.43775 | -148.21631 | 12000 ft | 178 kts | 15° |
| 2026-05-05 15:28 | 64.44969 | -148.20883 | 12001 ft | 177 kts | 15° |
| 2026-05-05 15:28 | 64.46158 | -148.20142 | 12002 ft | 177 kts | 15° |
| 2026-05-05 15:28 | 64.47346 | -148.19404 | 12003 ft | 176 kts | 15° |
| 2026-05-05 15:28 | 64.48531 | -148.18669 | 12004 ft | 176 kts | 15° |
| 2026-05-05 15:29 | 64.49718 | -148.17933 | 12005 ft | 176 kts | 15° |
| 2026-05-05 15:29 | 64.50902 | -148.17199 | 12006 ft | 176 kts | 15° |
| 2026-05-05 15:29 | 64.52088 | -148.16464 | 12006 ft | 176 kts | 15° |
| 2026-05-05 15:29 | 64.53274 | -148.15729 | 12007 ft | 176 kts | 15° |
| 2026-05-05 15:30 | 64.54456 | -148.14995 | 12008 ft | 176 kts | 15° |
| 2026-05-05 15:30 | 64.55642 | -148.14259 | 12009 ft | 176 kts | 15° |
| 2026-05-05 15:30 | 64.56807 | -148.13535 | 12017 ft | 176 kts | 15° |
| 2026-05-05 15:30 | 64.57988 | -148.12801 | 12020 ft | 175 kts | 15° |
| 2026-05-05 15:31 | 64.59168 | -148.12066 | 12017 ft | 176 kts | 15° |
| 2026-05-05 15:31 | 64.60353 | -148.11328 | 12004 ft | 176 kts | 15° |
| 2026-05-05 15:31 | 64.61535 | -148.10592 | 12000 ft | 176 kts | 15° |
| 2026-05-05 15:31 | 64.62719 | -148.09853 | 11999 ft | 176 kts | 15° |
| 2026-05-05 15:32 | 64.63899 | -148.09117 | 11999 ft | 175 kts | 15° |
| 2026-05-05 15:32 | 64.65064 | -148.08388 | 12000 ft | 175 kts | 15° |
| 2026-05-05 15:32 | 64.66257 | -148.07642 | 12000 ft | 175 kts | 15° |
| 2026-05-05 15:32 | 64.67419 | -148.06912 | 12000 ft | 175 kts | 15° |
| 2026-05-05 15:33 | 64.68597 | -148.06167 | 11999 ft | 175 kts | 15° |
| 2026-05-05 15:33 | 64.69769 | -148.05428 | 12000 ft | 175 kts | 15° |
| 2026-05-05 15:33 | 64.70948 | -148.04685 | 11999 ft | 175 kts | 16° |
| 2026-05-05 15:33 | 64.72125 | -148.03942 | 11998 ft | 175 kts | 16° |
| 2026-05-05 15:34 | 64.73300 | -148.03201 | 11998 ft | 175 kts | 16° |
| 2026-05-05 15:34 | 64.74479 | -148.02458 | 11999 ft | 175 kts | 16° |
| 2026-05-05 15:34 | 64.75652 | -148.01719 | 11999 ft | 175 kts | 16° |
| 2026-05-05 15:34 | 64.76830 | -148.00976 | 11999 ft | 175 kts | 16° |
| 2026-05-05 15:35 | 64.78003 | -148.00235 | 11998 ft | 175 kts | 16° |
| 2026-05-05 15:35 | 64.79175 | -147.99493 | 11999 ft | 174 kts | 16° |
| 2026-05-05 15:35 | 64.80347 | -147.98752 | 11999 ft | 174 kts | 16° |
| 2026-05-05 15:35 | 64.81518 | -147.98010 | 11998 ft | 174 kts | 16° |
| 2026-05-05 15:36 | 64.82691 | -147.97267 | 11996 ft | 174 kts | 16° |
| 2026-05-05 15:36 | 64.83863 | -147.96526 | 11998 ft | 174 kts | 16° |
| 2026-05-05 15:36 | 64.85035 | -147.95783 | 11999 ft | 174 kts | 16° |
| 2026-05-05 15:36 | 64.86201 | -147.95042 | 11999 ft | 174 kts | 16° |
| 2026-05-05 15:37 | 64.87372 | -147.94297 | 11999 ft | 174 kts | 16° |
| 2026-05-05 15:37 | 64.88539 | -147.93554 | 11999 ft | 174 kts | 17° |
| 2026-05-05 15:37 | 64.89709 | -147.92808 | 11999 ft | 174 kts | 17° |
| 2026-05-05 15:37 | 64.90874 | -147.92066 | 12000 ft | 174 kts | 17° |
| 2026-05-05 15:38 | 64.92028 | -147.91329 | 12000 ft | 174 kts | 17° |
| 2026-05-05 15:38 | 64.93192 | -147.90586 | 12000 ft | 173 kts | 17° |
| 2026-05-05 15:38 | 64.94357 | -147.89841 | 12000 ft | 173 kts | 17° |
| 2026-05-05 15:38 | 64.95518 | -147.89098 | 12000 ft | 173 kts | 17° |
| 2026-05-05 15:39 | 64.96683 | -147.88352 | 12000 ft | 173 kts | 17° |
| 2026-05-05 15:39 | 64.97847 | -147.87606 | 11997 ft | 173 kts | 17° |
| 2026-05-05 15:39 | 64.99010 | -147.86860 | 11995 ft | 173 kts | 17° |
| 2026-05-05 15:39 | 65.00175 | -147.86112 | 11994 ft | 173 kts | 17° |
| 2026-05-05 15:40 | 65.01337 | -147.85365 | 11994 ft | 173 kts | 17° |
| 2026-05-05 15:40 | 65.02499 | -147.84618 | 11994 ft | 173 kts | 17° |
| 2026-05-05 15:40 | 65.03649 | -147.83877 | 11994 ft | 173 kts | 17° |
| 2026-05-05 15:40 | 65.04807 | -147.83131 | 11994 ft | 173 kts | 17° |
| 2026-05-05 15:41 | 65.05967 | -147.82380 | 11996 ft | 172 kts | 18° |
| 2026-05-05 15:41 | 65.07121 | -147.81626 | 11999 ft | 172 kts | 18° |
| 2026-05-05 15:41 | 65.08274 | -147.80872 | 12000 ft | 172 kts | 18° |
| 2026-05-05 15:41 | 65.09429 | -147.80119 | 12000 ft | 172 kts | 18° |
| 2026-05-05 15:42 | 65.10582 | -147.79369 | 12000 ft | 172 kts | 18° |
| 2026-05-05 15:42 | 65.11736 | -147.78619 | 12000 ft | 172 kts | 18° |
| 2026-05-05 15:42 | 65.12893 | -147.77866 | 12000 ft | 172 kts | 18° |
| 2026-05-05 15:42 | 65.14046 | -147.77112 | 12000 ft | 172 kts | 18° |